createdAt,value
2018-07-11T00:00:21.725Z,100198.94
2018-07-11T00:02:50.329Z,100202.48
2018-07-11T00:05:18.752Z,100209.81
2018-07-11T00:07:47.247Z,100207.89
2018-07-11T00:10:15.677Z,100204.34
2018-07-11T00:12:44.105Z,100212.50
2018-07-11T00:15:12.549Z,100202.72
2018-07-11T00:17:40.995Z,100199.41
2018-07-11T00:20:09.509Z,100202.67
2018-07-11T00:22:38.054Z,100200.23
2018-07-11T00:25:06.549Z,100199.92
2018-07-11T00:27:35.061Z,100202.13
2018-07-11T00:30:03.557Z,100195.25
2018-07-11T00:32:32.096Z,100193.34
2018-07-11T00:35:00.599Z,100198.20
2018-07-11T00:37:29.231Z,100202.81
2018-07-11T00:39:57.684Z,100191.59
2018-07-11T00:42:26.662Z,100199.19
2018-07-11T00:44:55.302Z,100205.16
2018-07-11T00:47:23.861Z,100202.19
2018-07-11T00:49:52.424Z,100199.17
2018-07-11T00:52:20.941Z,100202.38
2018-07-11T00:54:49.435Z,100201.61
2018-07-11T00:57:18.132Z,100199.66
2018-07-11T00:59:46.601Z,100200.44
2018-07-11T01:02:15.417Z,100202.05
2018-07-11T01:04:43.858Z,100200.91
2018-07-11T01:07:12.353Z,100203.63
2018-07-11T01:09:44.871Z,100201.38
2018-07-11T01:12:13.354Z,100201.12
2018-07-11T01:14:41.805Z,100198.38
2018-07-11T01:17:14.393Z,100195.91
2018-07-11T01:19:43.589Z,100200.25
2018-07-11T01:22:12.054Z,100198.02
2018-07-11T01:24:40.458Z,100204.50
2018-07-11T01:27:08.901Z,100203.98
2018-07-11T01:29:37.355Z,100206.67
2018-07-11T01:32:05.777Z,100204.45
2018-07-11T01:34:34.189Z,100207.40
2018-07-11T01:37:02.714Z,100213.41
2018-07-11T01:39:31.098Z,100211.18
2018-07-11T01:41:59.527Z,100213.07
2018-07-11T01:44:27.951Z,100210.89
2018-07-11T01:46:56.386Z,100215.28
2018-07-11T01:49:24.762Z,100217.48
2018-07-11T01:52:04.516Z,100219.65
2018-07-11T01:54:32.967Z,100221.60
2018-07-11T01:57:01.415Z,100215.39
2018-07-11T01:59:33.683Z,100226.33
2018-07-11T02:02:02.700Z,100224.97
2018-07-11T02:04:32.003Z,100219.59
2018-07-11T02:07:00.780Z,100219.59
2018-07-11T02:09:29.619Z,100221.70
2018-07-11T02:11:58.178Z,100232.64
2018-07-11T02:14:26.697Z,100221.89
2018-07-11T02:16:55.404Z,100216.08
2018-07-11T02:19:24.019Z,100218.77
2018-07-11T02:21:53.057Z,100221.14
2018-07-11T02:24:23.235Z,100224.37
2018-07-11T02:26:51.965Z,100224.78
2018-07-11T02:29:20.520Z,100226.92
2018-07-11T02:31:48.995Z,100226.14
2018-07-11T02:34:21.046Z,100224.83
2018-07-11T02:36:49.465Z,100222.11
2018-07-11T02:39:17.979Z,100232.16
2018-07-11T02:41:46.372Z,100234.81
2018-07-11T02:44:14.869Z,100237.59
2018-07-11T02:46:48.606Z,100240.02
2018-07-11T02:49:17.142Z,100242.02
2018-07-11T02:51:45.593Z,100243.31
2018-07-11T02:54:14.046Z,100241.91
2018-07-11T02:56:42.448Z,100243.30
2018-07-11T02:59:10.857Z,100239.19
2018-07-11T03:01:39.284Z,100241.61
2018-07-11T03:04:07.705Z,100245.13
2018-07-11T03:06:36.176Z,100251.10
2018-07-11T03:09:04.570Z,100248.61
2018-07-11T03:11:32.989Z,100245.33
2018-07-11T03:14:01.526Z,100250.05
2018-07-11T03:16:29.957Z,100248.14
2018-07-11T03:18:58.575Z,100249.66
2018-07-11T03:21:26.989Z,100247.98
2018-07-11T03:23:55.421Z,100246.58
2018-07-11T03:26:23.865Z,100245.70
2018-07-11T03:28:52.281Z,100240.48
2018-07-11T03:31:20.722Z,100232.63
2018-07-11T03:33:49.246Z,100229.38
2018-07-11T03:36:17.654Z,100229.38
2018-07-11T03:38:46.099Z,100234.02
2018-07-11T03:41:14.554Z,100234.25
2018-07-11T03:43:42.977Z,100233.16
2018-07-11T03:46:11.396Z,100237.50
2018-07-11T03:48:39.875Z,100239.69
2018-07-11T03:51:08.306Z,100241.84
2018-07-11T03:53:36.837Z,100253.48
2018-07-11T03:56:05.296Z,100247.02
2018-07-11T03:58:33.836Z,100238.55
2018-07-11T04:01:02.298Z,100240.20
2018-07-11T04:03:30.755Z,100238.67
2018-07-11T04:05:59.187Z,100237.31
2018-07-11T04:08:27.662Z,100248.66
2018-07-11T04:10:56.084Z,100253.82
2018-07-11T04:13:24.597Z,100257.02
2018-07-11T04:15:53.037Z,100260.32
2018-07-11T04:18:25.624Z,100261.06
2018-07-11T04:20:54.197Z,100258.38
2018-07-11T04:23:22.715Z,100262.48
2018-07-11T04:25:51.285Z,100257.78
2018-07-11T04:28:19.817Z,100254.33
2018-07-11T04:30:48.350Z,100256.84
2018-07-11T04:33:16.918Z,100268.64
2018-07-11T04:35:45.437Z,100268.19
2018-07-11T04:38:13.926Z,100271.63
2018-07-11T04:40:42.461Z,100261.37
2018-07-11T04:43:11.029Z,100259.20
2018-07-11T04:45:39.830Z,100263.09
2018-07-11T04:48:08.884Z,100261.20
2018-07-11T04:50:37.692Z,100265.83
2018-07-11T04:53:09.900Z,100264.02
2018-07-11T04:55:38.922Z,100271.61
2018-07-11T04:58:07.345Z,100276.62
2018-07-11T05:00:35.810Z,100282.74
2018-07-11T05:03:04.268Z,100290.80
2018-07-11T05:05:32.733Z,100284.15
2018-07-11T05:08:01.244Z,100292.47
2018-07-11T05:10:29.872Z,100288.66
2018-07-11T05:12:58.293Z,100298.91
2018-07-11T05:15:26.788Z,100297.59
2018-07-11T05:17:56.161Z,100304.52
2018-07-11T05:20:24.617Z,100304.59
2018-07-11T05:22:53.042Z,100309.05
2018-07-11T05:25:21.513Z,100310.41
2018-07-11T05:27:49.938Z,100313.31
2018-07-11T05:30:18.379Z,100316.03
2018-07-11T05:32:46.809Z,100316.00
2018-07-11T05:35:15.393Z,100321.20
2018-07-11T05:37:43.930Z,100314.47
2018-07-11T05:40:12.432Z,100317.02
2018-07-11T05:42:40.882Z,100315.95
2018-07-11T05:45:09.374Z,100311.89
2018-07-11T05:47:37.816Z,100314.11
2018-07-11T05:50:06.446Z,100304.89
2018-07-11T05:52:34.940Z,100305.63
2018-07-11T05:55:03.525Z,100307.83
2018-07-11T05:57:31.985Z,100312.77
2018-07-11T06:00:00.511Z,100329.13
2018-07-11T06:02:28.981Z,100324.72
2018-07-11T06:04:57.470Z,100328.90
2018-07-11T06:07:25.944Z,100321.75
2018-07-11T06:09:54.465Z,100317.75
2018-07-11T06:12:22.892Z,100325.66
2018-07-11T06:14:51.366Z,100328.17
2018-07-11T06:17:20.125Z,100328.98
2018-07-11T06:19:48.641Z,100332.25
2018-07-11T06:22:17.103Z,100339.64
2018-07-11T06:24:45.581Z,100345.64
2018-07-11T06:27:14.036Z,100352.20
2018-07-11T06:29:42.520Z,100353.05
2018-07-11T06:32:10.961Z,100350.58
2018-07-11T06:34:39.404Z,100357.40
2018-07-11T06:37:07.833Z,100354.16
2018-07-11T06:39:36.306Z,100360.15
2018-07-11T06:42:04.772Z,100354.41
2018-07-11T06:44:33.236Z,100360.95
2018-07-11T06:47:16.172Z,100363.66
2018-07-11T06:49:46.498Z,100356.58
2018-07-11T06:52:15.490Z,100364.44
2018-07-11T06:54:43.925Z,100365.52
2018-07-11T06:57:12.398Z,100364.73
2018-07-11T06:59:40.844Z,100362.67
2018-07-11T07:02:09.266Z,100368.16
2018-07-11T07:04:37.681Z,100365.10
2018-07-11T07:07:06.073Z,100368.11
2018-07-11T07:09:34.494Z,100367.93
2018-07-11T07:12:02.951Z,100366.89
2018-07-11T07:14:31.362Z,100370.98
2018-07-11T07:16:59.762Z,100363.16
2018-07-11T07:19:28.188Z,100361.47
2018-07-11T07:21:56.738Z,100365.53
2018-07-11T07:24:25.222Z,100358.49
2018-07-11T07:26:53.643Z,100358.27
2018-07-11T07:29:22.494Z,100361.92
2018-07-11T07:31:50.929Z,100365.69
2018-07-11T07:34:19.381Z,100355.16
2018-07-11T07:36:47.810Z,100352.57
2018-07-11T07:39:16.255Z,100357.83
2018-07-11T07:41:44.656Z,100356.20
2018-07-11T07:44:13.441Z,100356.45
2018-07-11T07:46:46.081Z,100355.11
2018-07-11T07:49:14.670Z,100355.61
2018-07-11T07:51:43.162Z,100355.31
2018-07-11T07:54:11.664Z,100347.69
2018-07-11T07:56:40.187Z,100341.71
2018-07-11T07:59:08.663Z,100350.54
2018-07-11T08:01:37.181Z,100339.41
2018-07-11T08:04:05.693Z,100339.45
2018-07-11T08:06:34.146Z,100342.81
2018-07-11T08:09:02.658Z,100343.87
2018-07-11T08:11:31.106Z,100342.05
2018-07-11T08:13:59.520Z,100354.01
2018-07-11T08:16:28.052Z,100348.84
2018-07-11T08:18:56.477Z,100355.72
2018-07-11T08:21:24.979Z,100357.53
2018-07-11T08:24:04.594Z,100356.13
2018-07-11T08:26:44.373Z,100363.89
2018-07-11T08:31:56.534Z,100358.70
2018-07-11T08:35:04.092Z,100362.88
2018-07-11T08:37:48.930Z,100361.96
2018-07-11T08:41:04.634Z,100357.55
2018-07-11T08:43:42.802Z,100352.36
2018-07-11T08:46:22.467Z,100356.38
2018-07-11T08:53:12.118Z,100352.31
2018-07-11T08:55:51.717Z,100349.88
2018-07-11T08:58:45.270Z,100353.83
2018-07-11T09:01:55.987Z,100351.67
2018-07-11T09:06:44.755Z,100358.92
2018-07-11T09:11:29.590Z,100357.37
2018-07-11T09:15:05.753Z,100356.22
2018-07-11T09:17:50.988Z,100357.45
2018-07-11T09:20:37.843Z,100352.95
2018-07-11T09:23:17.698Z,100353.20
2018-07-11T09:25:46.229Z,100349.05
2018-07-11T09:28:14.706Z,100338.81
2018-07-11T09:30:43.189Z,100340.94
2018-07-11T09:33:11.714Z,100341.45
2018-07-11T09:35:40.173Z,100338.76
2018-07-11T09:38:08.948Z,100341.51
2018-07-11T09:40:39.728Z,100339.71
2018-07-11T09:43:08.249Z,100331.30
2018-07-11T09:45:36.786Z,100327.86
2018-07-11T09:48:05.397Z,100326.58
2018-07-11T09:50:33.938Z,100321.42
2018-07-11T09:53:02.378Z,100317.27
2018-07-11T09:55:30.848Z,100319.45
2018-07-11T09:57:59.339Z,100325.64
2018-07-11T10:00:33.151Z,100323.50
2018-07-11T10:03:01.651Z,100327.28
2018-07-11T10:05:31.165Z,100327.28
2018-07-11T10:07:59.606Z,100326.90
2018-07-11T10:10:28.047Z,100328.28
2018-07-11T10:12:56.488Z,100325.20
2018-07-11T10:15:24.926Z,100327.41
2018-07-11T10:17:53.447Z,100324.05
2018-07-11T10:20:21.864Z,100321.24
2018-07-11T10:22:50.373Z,100315.03
2018-07-11T10:25:18.838Z,100307.73
2018-07-11T10:27:47.870Z,100300.16
2018-07-11T10:30:16.293Z,100304.56
2018-07-11T10:32:44.815Z,100297.08
2018-07-11T10:35:13.505Z,100301.05
2018-07-11T10:37:41.977Z,100304.83
2018-07-11T10:40:10.383Z,100302.13
2018-07-11T10:42:38.897Z,100298.52
2018-07-11T10:45:07.323Z,100295.53
2018-07-11T10:47:35.782Z,100294.70
2018-07-11T10:50:04.245Z,100293.13
2018-07-11T10:52:32.701Z,100292.80
2018-07-11T10:55:01.136Z,100290.70
2018-07-11T10:57:29.624Z,100285.19
2018-07-11T10:59:58.065Z,100286.87
2018-07-11T11:02:26.481Z,100288.44
2018-07-11T11:04:55.007Z,100273.21
2018-07-11T11:07:23.378Z,100277.95
2018-07-11T11:09:51.821Z,100265.86
2018-07-11T11:12:20.293Z,100268.95
2018-07-11T11:14:48.768Z,100264.53
2018-07-11T11:17:17.253Z,100264.73
2018-07-11T11:19:45.716Z,100263.47
2018-07-11T11:22:14.300Z,100259.53
2018-07-11T11:24:42.738Z,100256.15
2018-07-11T11:27:11.212Z,100261.18
2018-07-11T11:29:39.728Z,100264.17
2018-07-11T11:32:08.197Z,100265.47
2018-07-11T11:34:36.637Z,100264.91
2018-07-11T11:37:05.222Z,100261.68
2018-07-11T11:39:33.678Z,100262.76
2018-07-11T11:42:03.227Z,100248.78
2018-07-11T11:44:31.625Z,100258.61
2018-07-11T11:47:02.342Z,100259.67
2018-07-11T11:49:31.560Z,100256.21
2018-07-11T11:52:00.241Z,100264.88
2018-07-11T11:54:29.050Z,100265.75
2018-07-11T11:56:57.543Z,100255.87
2018-07-11T11:59:26.086Z,100258.81
2018-07-11T12:01:54.566Z,100257.83
2018-07-11T12:04:23.016Z,100247.98
2018-07-11T12:06:51.597Z,100253.61
2018-07-11T12:09:20.108Z,100258.24
2018-07-11T12:11:48.558Z,100258.54
2018-07-11T12:14:17.625Z,100250.21
2018-07-11T12:16:46.146Z,100260.02
2018-07-11T12:19:14.898Z,100253.84
2018-07-11T12:21:43.369Z,100247.69
2018-07-11T12:24:11.854Z,100250.11
2018-07-11T12:26:40.398Z,100240.05
2018-07-11T12:29:08.806Z,100241.58
2018-07-11T12:31:37.798Z,100237.87
2018-07-11T12:34:06.311Z,100227.30
2018-07-11T12:36:34.752Z,100237.95
2018-07-11T12:39:03.295Z,100231.45
2018-07-11T12:41:31.858Z,100239.68
2018-07-11T12:44:00.505Z,100234.61
2018-07-11T12:46:28.970Z,100234.63
2018-07-11T12:49:02.187Z,100230.09
2018-07-11T12:51:31.014Z,100223.14
2018-07-11T12:53:59.502Z,100216.38
2018-07-11T12:56:28.271Z,100211.00
2018-07-11T12:58:57.493Z,100217.16
2018-07-11T13:01:25.966Z,100208.19
2018-07-11T13:03:56.364Z,100204.86
2018-07-11T13:06:26.354Z,100208.18
2018-07-11T13:08:54.802Z,100197.16
2018-07-11T13:11:28.844Z,100191.28
2018-07-11T13:13:57.274Z,100185.87
2018-07-11T13:16:25.736Z,100193.19
2018-07-11T13:18:54.181Z,100201.34
2018-07-11T13:21:22.615Z,100192.45
2018-07-11T13:23:51.109Z,100192.55
2018-07-11T13:26:19.551Z,100197.80
2018-07-11T13:28:48.065Z,100191.66
2018-07-11T13:31:16.477Z,100177.56
2018-07-11T13:33:44.969Z,100184.58
2018-07-11T13:36:13.423Z,100185.02
2018-07-11T13:38:41.844Z,100194.20
2018-07-11T13:41:10.447Z,100190.73
2018-07-11T13:43:38.909Z,100187.53
2018-07-11T13:46:07.462Z,100190.29
2018-07-11T13:48:35.942Z,100175.49
2018-07-11T13:51:04.386Z,100188.89
2018-07-11T13:53:32.836Z,100177.42
2018-07-11T13:56:01.438Z,100179.89
2018-07-11T13:58:30.065Z,100183.37
2018-07-11T14:00:59.050Z,100171.73
2018-07-11T14:03:27.511Z,100189.91
2018-07-11T14:05:56.087Z,100184.73
2018-07-11T14:08:24.589Z,100182.78
2018-07-11T14:10:53.226Z,100178.27
2018-07-11T14:13:21.732Z,100178.84
2018-07-11T14:15:50.198Z,100181.13
2018-07-11T14:18:18.653Z,100185.50
2018-07-11T14:20:48.085Z,100177.64
2018-07-11T14:23:26.524Z,100171.64
2018-07-11T14:25:55.070Z,100170.25
2018-07-11T14:28:23.549Z,100164.66
2018-07-11T14:30:52.092Z,100161.97
2018-07-11T14:33:20.776Z,100166.63
2018-07-11T14:35:49.222Z,100166.82
2018-07-11T14:38:17.737Z,100162.44
2018-07-11T14:40:46.400Z,100159.11
2018-07-11T14:43:14.849Z,100159.53
2018-07-11T14:45:43.433Z,100176.33
2018-07-11T14:48:16.401Z,100162.37
2018-07-11T14:50:45.401Z,100169.49
2018-07-11T14:53:14.040Z,100165.36
2018-07-11T14:55:42.569Z,100164.96
2018-07-11T14:58:11.144Z,100154.67
2018-07-11T15:00:39.610Z,100158.56
2018-07-11T15:03:08.053Z,100168.55
2018-07-11T15:05:36.700Z,100166.80
2018-07-11T15:08:05.510Z,100164.38
2018-07-11T15:10:34.188Z,100158.94
2018-07-11T15:13:02.741Z,100157.98
2018-07-11T15:15:31.640Z,100162.45
2018-07-11T15:18:00.549Z,100156.59
2018-07-11T15:20:29.081Z,100157.73
2018-07-11T15:22:57.619Z,100162.45
2018-07-11T15:25:26.312Z,100160.34
2018-07-11T15:27:54.840Z,100155.89
2018-07-11T15:30:23.325Z,100152.89
2018-07-11T15:32:51.794Z,100156.93
2018-07-11T15:35:20.313Z,100148.25
2018-07-11T15:37:48.794Z,100154.75
2018-07-11T15:40:17.339Z,100155.40
2018-07-11T15:42:46.121Z,100158.55
2018-07-11T15:45:14.627Z,100164.07
2018-07-11T15:47:44.512Z,100182.57
2018-07-11T15:50:13.002Z,100199.33
2018-07-11T15:52:41.896Z,100214.23
2018-07-11T15:55:10.445Z,100218.44
2018-07-11T15:57:49.860Z,100219.54
2018-07-11T16:00:20.143Z,100218.39
2018-07-11T16:02:49.679Z,100222.55
2018-07-11T16:05:20.563Z,100224.30
2018-07-11T16:07:51.062Z,100233.79
2018-07-11T16:10:38.501Z,100234.33
2018-07-11T16:13:07.361Z,100228.09
2018-07-11T16:15:35.870Z,100230.61
2018-07-11T16:18:05.977Z,100228.42
2018-07-11T16:20:34.676Z,100229.67
2018-07-11T16:23:03.631Z,100228.47
2018-07-11T16:25:32.274Z,100232.28
2018-07-11T16:28:00.936Z,100223.94
2018-07-11T16:30:29.478Z,100225.91
2018-07-11T16:32:57.990Z,100213.40
2018-07-11T16:35:26.602Z,100214.92
2018-07-11T16:37:55.152Z,100208.68
2018-07-11T16:40:23.666Z,100208.14
2018-07-11T16:42:52.814Z,100209.95
2018-07-11T16:45:21.341Z,100207.17
2018-07-11T16:47:49.925Z,100202.06
2018-07-11T16:50:19.061Z,100200.33
2018-07-11T16:52:47.621Z,100199.89
2018-07-11T16:55:16.247Z,100200.19
2018-07-11T16:57:47.254Z,100202.95
2018-07-11T17:00:15.813Z,100205.96
2018-07-11T17:02:45.990Z,100206.80
2018-07-11T17:05:20.274Z,100202.77
2018-07-11T17:07:51.961Z,100200.73
2018-07-11T17:10:22.408Z,100198.69
2018-07-11T17:12:55.312Z,100207.17
2018-07-11T17:15:25.128Z,100205.59
2018-07-11T17:17:55.694Z,100198.81
2018-07-11T17:20:24.922Z,100195.13
2018-07-11T17:22:57.157Z,100202.19
2018-07-11T17:25:30.101Z,100197.34
2018-07-11T17:28:00.838Z,100199.45
2018-07-11T17:30:31.725Z,100200.91
2018-07-11T17:33:00.472Z,100204.84
2018-07-11T17:35:29.506Z,100204.40
2018-07-11T17:37:59.099Z,100200.59
2018-07-11T17:40:27.618Z,100207.03
2018-07-11T17:42:56.125Z,100219.69
2018-07-11T17:45:24.647Z,100225.92
2018-07-11T17:50:08.435Z,100231.98
2018-07-11T17:53:09.690Z,100237.61
2018-07-11T17:55:52.300Z,100244.73
2018-07-11T17:58:24.000Z,100233.28
2018-07-11T18:01:05.063Z,100225.28
2018-07-11T18:03:40.997Z,100224.58
2018-07-11T18:06:18.617Z,100221.87
2018-07-11T18:08:52.784Z,100208.97
2018-07-11T18:11:21.947Z,100206.57
2018-07-11T18:13:53.128Z,100200.11
2018-07-11T18:16:46.477Z,100210.33
2018-07-11T18:21:40.152Z,100208.95
2018-07-11T18:24:33.180Z,100212.92
2018-07-11T18:29:21.678Z,100223.22
2018-07-11T18:31:59.080Z,100253.75
2018-07-11T18:36:43.077Z,100256.57
2018-07-11T18:39:21.673Z,100258.08
2018-07-11T18:43:00.054Z,100255.11
2018-07-11T18:45:44.011Z,100246.80
2018-07-11T18:49:23.333Z,100247.13
2018-07-11T18:52:03.043Z,100227.81
2018-07-11T18:55:09.083Z,100222.39
2018-07-11T19:00:01.949Z,100219.73
2018-07-11T19:03:18.995Z,100215.81
2018-07-11T19:05:55.597Z,100217.89
2018-07-11T19:08:33.487Z,100215.20
2018-07-11T19:11:08.521Z,100207.51
2018-07-11T19:13:42.639Z,100220.30
2018-07-11T19:16:19.357Z,100224.11
2018-07-11T19:18:57.311Z,100235.09
2018-07-11T19:21:35.716Z,100237.27
2018-07-11T19:24:10.150Z,100243.02
2018-07-11T19:26:54.315Z,100248.26
2018-07-11T19:29:36.738Z,100245.82
2018-07-11T19:33:11.534Z,100246.40
2018-07-11T19:35:51.673Z,100250.05
2018-07-11T19:38:38.869Z,100254.11
2018-07-11T19:41:21.933Z,100244.51
2018-07-11T19:44:14.602Z,100243.38
2018-07-11T19:47:21.137Z,100246.89
2018-07-11T19:49:59.352Z,100260.11
2018-07-11T19:52:39.469Z,100267.75
2018-07-11T19:56:20.340Z,100265.31
2018-07-11T19:58:49.070Z,100267.16
2018-07-11T20:01:19.919Z,100261.46
2018-07-11T20:03:48.426Z,100260.22
2018-07-11T20:06:16.953Z,100257.91
2018-07-11T20:08:45.443Z,100257.14
2018-07-11T20:11:13.985Z,100246.77
2018-07-11T20:13:42.542Z,100247.05
2018-07-11T20:16:11.075Z,100236.97
2018-07-11T20:18:39.562Z,100252.02
2018-07-11T20:21:08.021Z,100248.45
2018-07-11T20:23:36.545Z,100253.11
2018-07-11T20:26:05.122Z,100247.98
2018-07-11T20:28:33.640Z,100248.78
2018-07-11T20:31:02.074Z,100248.53
2018-07-11T20:33:30.599Z,100250.20
2018-07-11T20:35:59.933Z,100248.09
2018-07-11T20:38:28.425Z,100252.91
2018-07-11T20:40:57.045Z,100257.70
2018-07-11T20:43:25.623Z,100260.14
2018-07-11T20:45:54.125Z,100265.08
2018-07-11T20:48:22.862Z,100265.30
2018-07-11T20:50:51.348Z,100262.86
2018-07-11T20:53:19.851Z,100264.82
2018-07-11T20:55:48.290Z,100264.52
2018-07-11T20:58:28.036Z,100270.25
2018-07-11T21:01:07.775Z,100262.91
2018-07-11T21:07:58.389Z,100271.37
2018-07-11T21:10:38.727Z,100272.14
2018-07-11T21:13:57.328Z,100269.66
2018-07-11T21:16:34.511Z,100271.27
2018-07-11T21:19:10.858Z,100275.11
2018-07-11T21:21:40.272Z,100267.41
2018-07-11T21:24:09.626Z,100268.45
2018-07-11T21:26:38.600Z,100264.86
2018-07-11T21:29:07.297Z,100261.63
2018-07-11T21:31:35.777Z,100278.09
2018-07-11T21:34:04.213Z,100273.41
2018-07-11T21:36:32.634Z,100275.77
2018-07-11T21:39:01.087Z,100274.13
2018-07-11T21:41:29.508Z,100278.75
2018-07-11T21:43:58.611Z,100282.81
2018-07-11T21:46:27.161Z,100288.21
2018-07-11T21:48:55.602Z,100287.63
2018-07-11T21:51:24.300Z,100290.05
2018-07-11T21:53:53.773Z,100283.22
2018-07-11T21:56:22.253Z,100287.08
2018-07-11T21:58:50.837Z,100281.05
2018-07-11T22:01:19.318Z,100283.00
2018-07-11T22:03:47.783Z,100289.85
2018-07-11T22:06:16.258Z,100281.77
2018-07-11T22:08:44.737Z,100285.03
2018-07-11T22:11:13.229Z,100279.36
2018-07-11T22:13:41.702Z,100278.02
2018-07-11T22:16:10.521Z,100274.97
2018-07-11T22:18:42.766Z,100274.15
2018-07-11T22:21:10.863Z,100265.14
2018-07-11T22:23:38.141Z,100267.63
2018-07-11T22:26:05.393Z,100270.15
2018-07-11T22:28:32.686Z,100272.66
2018-07-11T22:30:59.921Z,100270.77
2018-07-11T22:33:27.154Z,100269.48
2018-07-11T22:35:54.454Z,100265.64
2018-07-11T22:38:21.658Z,100261.09
2018-07-11T22:40:48.913Z,100266.31
2018-07-11T22:43:16.147Z,100270.49
2018-07-11T22:45:43.407Z,100275.22
2018-07-11T22:48:10.655Z,100274.97
2018-07-11T22:50:37.918Z,100271.97
2018-07-11T22:53:05.161Z,100277.24
2018-07-11T22:55:32.433Z,100276.44
2018-07-11T22:57:59.676Z,100276.69
2018-07-11T23:00:26.930Z,100281.05
2018-07-11T23:02:54.177Z,100275.03
2018-07-11T23:05:21.444Z,100275.25
2018-07-11T23:07:48.680Z,100279.07
2018-07-11T23:10:15.948Z,100279.33
2018-07-11T23:12:43.185Z,100279.31
2018-07-11T23:15:10.445Z,100275.47
2018-07-11T23:17:37.712Z,100276.05
2018-07-11T23:20:04.979Z,100275.22
2018-07-11T23:22:32.229Z,100274.42
2018-07-11T23:24:59.477Z,100273.89
2018-07-11T23:27:26.735Z,100266.80
2018-07-11T23:29:54.049Z,100270.34
2018-07-11T23:32:21.299Z,100270.84
2018-07-11T23:34:48.570Z,100272.80
2018-07-11T23:37:15.806Z,100272.50
2018-07-11T23:39:43.085Z,100273.06
2018-07-11T23:42:10.346Z,100272.53
2018-07-11T23:44:37.662Z,100272.53
2018-07-11T23:47:04.926Z,100276.08
2018-07-11T23:49:32.186Z,100273.34
2018-07-11T23:51:59.458Z,100270.33
2018-07-11T23:54:26.710Z,100270.08
2018-07-11T23:56:54.342Z,100273.36
2018-07-11T23:59:21.589Z,100275.59
